sensor_id;sensor_type;location;lat;lon;timestamp;temperature;humidity
15930;DHT22;8064;51.142;4.780;2024-02-26T00:00:42;8.40;99.90
15930;DHT22;8064;51.142;4.780;2024-02-26T00:03:07;8.40;99.90
15930;DHT22;8064;51.142;4.780;2024-02-26T00:05:33;8.40;99.90
15930;DHT22;8064;51.142;4.780;2024-02-26T00:07:59;8.40;99.90
15930;DHT22;8064;51.142;4.780;2024-02-26T00:10:25;8.40;99.90
15930;DHT22;8064;51.142;4.780;2024-02-26T00:12:50;8.30;99.90
15930;DHT22;8064;51.142;4.780;2024-02-26T00:15:16;8.30;99.90
15930;DHT22;8064;51.142;4.780;2024-02-26T00:17:42;8.30;99.90
15930;DHT22;8064;51.142;4.780;2024-02-26T00:20:08;8.30;99.90
15930;DHT22;8064;51.142;4.780;2024-02-26T00:22:35;8.30;99.90
15930;DHT22;8064;51.142;4.780;2024-02-26T00:25:01;8.30;99.90
15930;DHT22;8064;51.142;4.780;2024-02-26T00:27:27;8.20;99.90
15930;DHT22;8064;51.142;4.780;2024-02-26T00:29:53;8.20;99.90
15930;DHT22;8064;51.142;4.780;2024-02-26T00:32:18;8.20;99.90
15930;DHT22;8064;51.142;4.780;2024-02-26T00:34:44;8.20;99.90
15930;DHT22;8064;51.142;4.780;2024-02-26T00:37:10;8.20;99.90
15930;DHT22;8064;51.142;4.780;2024-02-26T00:39:36;8.20;99.90
15930;DHT22;8064;51.142;4.780;2024-02-26T00:42:01;8.20;99.90
15930;DHT22;8064;51.142;4.780;2024-02-26T00:44:28;8.10;99.90
15930;DHT22;8064;51.142;4.780;2024-02-26T00:46:54;8.10;99.90
15930;DHT22;8064;51.142;4.780;2024-02-26T00:49:19;8.10;99.90
15930;DHT22;8064;51.142;4.780;2024-02-26T00:51:45;8.10;99.90
15930;DHT22;8064;51.142;4.780;2024-02-26T00:54:11;8.10;99.90
15930;DHT22;8064;51.142;4.780;2024-02-26T00:56:36;8.10;99.90
15930;DHT22;8064;51.142;4.780;2024-02-26T00:59:02;8.10;99.90
15930;DHT22;8064;51.142;4.780;2024-02-26T01:01:29;8.00;99.90
15930;DHT22;8064;51.142;4.780;2024-02-26T01:03:54;8.00;99.90
15930;DHT22;8064;51.142;4.780;2024-02-26T01:06:20;8.00;99.90
15930;DHT22;8064;51.142;4.780;2024-02-26T01:08:47;8.00;99.90
15930;DHT22;8064;51.142;4.780;2024-02-26T01:11:13;8.00;99.90
15930;DHT22;8064;51.142;4.780;2024-02-26T01:13:39;8.00;99.90
15930;DHT22;8064;51.142;4.780;2024-02-26T01:16:05;8.00;99.90
15930;DHT22;8064;51.142;4.780;2024-02-26T01:18:30;8.00;99.90
15930;DHT22;8064;51.142;4.780;2024-02-26T01:20:56;7.90;99.90
15930;DHT22;8064;51.142;4.780;2024-02-26T01:23:22;7.90;99.90
15930;DHT22;8064;51.142;4.780;2024-02-26T01:25:47;7.90;99.90
15930;DHT22;8064;51.142;4.780;2024-02-26T01:28:14;7.90;99.90
15930;DHT22;8064;51.142;4.780;2024-02-26T01:30:40;7.90;99.90
15930;DHT22;8064;51.142;4.780;2024-02-26T01:33:06;7.90;99.90
15930;DHT22;8064;51.142;4.780;2024-02-26T01:35:32;7.90;99.90
15930;DHT22;8064;51.142;4.780;2024-02-26T01:37:58;7.80;99.90
15930;DHT22;8064;51.142;4.780;2024-02-26T01:40:27;7.90;99.90
15930;DHT22;8064;51.142;4.780;2024-02-26T01:42:53;7.80;99.90
15930;DHT22;8064;51.142;4.780;2024-02-26T01:45:19;7.80;99.90
15930;DHT22;8064;51.142;4.780;2024-02-26T01:47:51;7.80;99.90
15930;DHT22;8064;51.142;4.780;2024-02-26T01:50:18;7.80;99.90
15930;DHT22;8064;51.142;4.780;2024-02-26T01:52:46;7.80;99.90
15930;DHT22;8064;51.142;4.780;2024-02-26T01:55:13;7.80;99.90
15930;DHT22;8064;51.142;4.780;2024-02-26T01:57:41;7.80;99.90
15930;DHT22;8064;51.142;4.780;2024-02-26T02:00:08;7.80;99.90
15930;DHT22;8064;51.142;4.780;2024-02-26T02:02:34;7.80;99.90
15930;DHT22;8064;51.142;4.780;2024-02-26T02:05:00;7.80;99.90
15930;DHT22;8064;51.142;4.780;2024-02-26T02:07:27;7.80;99.90
15930;DHT22;8064;51.142;4.780;2024-02-26T02:09:53;7.80;99.90
15930;DHT22;8064;51.142;4.780;2024-02-26T02:12:21;7.80;99.90
15930;DHT22;8064;51.142;4.780;2024-02-26T02:14:47;7.80;99.90
15930;DHT22;8064;51.142;4.780;2024-02-26T02:17:12;7.80;99.90
15930;DHT22;8064;51.142;4.780;2024-02-26T02:19:38;7.80;99.90
15930;DHT22;8064;51.142;4.780;2024-02-26T02:22:04;7.80;99.90
15930;DHT22;8064;51.142;4.780;2024-02-26T02:24:30;7.80;99.90
15930;DHT22;8064;51.142;4.780;2024-02-26T02:26:55;7.80;99.90
15930;DHT22;8064;51.142;4.780;2024-02-26T02:29:21;7.80;99.90
15930;DHT22;8064;51.142;4.780;2024-02-26T02:31:48;7.80;99.90
15930;DHT22;8064;51.142;4.780;2024-02-26T02:34:14;7.80;99.90
15930;DHT22;8064;51.142;4.780;2024-02-26T02:36:51;7.80;99.90
15930;DHT22;8064;51.142;4.780;2024-02-26T02:39:17;7.80;99.90
15930;DHT22;8064;51.142;4.780;2024-02-26T02:41:43;7.80;99.90
15930;DHT22;8064;51.142;4.780;2024-02-26T02:44:09;7.80;99.90
15930;DHT22;8064;51.142;4.780;2024-02-26T02:46:35;7.70;99.90
15930;DHT22;8064;51.142;4.780;2024-02-26T02:49:01;7.70;99.90
15930;DHT22;8064;51.142;4.780;2024-02-26T02:51:27;7.70;99.90
15930;DHT22;8064;51.142;4.780;2024-02-26T02:53:52;7.70;99.90
15930;DHT22;8064;51.142;4.780;2024-02-26T02:56:18;7.70;99.90
15930;DHT22;8064;51.142;4.780;2024-02-26T02:58:44;7.70;99.90
15930;DHT22;8064;51.142;4.780;2024-02-26T03:01:10;7.70;99.90
15930;DHT22;8064;51.142;4.780;2024-02-26T03:03:37;7.60;99.90
15930;DHT22;8064;51.142;4.780;2024-02-26T03:06:03;7.60;99.90
15930;DHT22;8064;51.142;4.780;2024-02-26T03:08:29;7.60;99.90
15930;DHT22;8064;51.142;4.780;2024-02-26T03:10:54;7.60;99.90
15930;DHT22;8064;51.142;4.780;2024-02-26T03:13:21;7.60;99.90
15930;DHT22;8064;51.142;4.780;2024-02-26T03:15:46;7.60;99.90
15930;DHT22;8064;51.142;4.780;2024-02-26T03:18:12;7.60;99.90
15930;DHT22;8064;51.142;4.780;2024-02-26T03:20:38;7.60;99.90
15930;DHT22;8064;51.142;4.780;2024-02-26T03:23:04;7.60;99.90
15930;DHT22;8064;51.142;4.780;2024-02-26T03:25:29;7.60;99.90
15930;DHT22;8064;51.142;4.780;2024-02-26T03:27:55;7.60;99.90
15930;DHT22;8064;51.142;4.780;2024-02-26T03:30:21;7.50;99.90
15930;DHT22;8064;51.142;4.780;2024-02-26T03:32:47;7.50;99.90
15930;DHT22;8064;51.142;4.780;2024-02-26T03:35:13;7.50;99.90
15930;DHT22;8064;51.142;4.780;2024-02-26T03:37:39;7.50;99.90
15930;DHT22;8064;51.142;4.780;2024-02-26T03:40:05;7.50;99.90
15930;DHT22;8064;51.142;4.780;2024-02-26T03:42:31;7.50;99.90
15930;DHT22;8064;51.142;4.780;2024-02-26T03:44:57;7.50;99.90
15930;DHT22;8064;51.142;4.780;2024-02-26T03:47:22;7.50;99.90
15930;DHT22;8064;51.142;4.780;2024-02-26T03:49:49;7.50;99.90
15930;DHT22;8064;51.142;4.780;2024-02-26T03:52:14;7.50;99.90
15930;DHT22;8064;51.142;4.780;2024-02-26T03:54:40;7.50;99.90
15930;DHT22;8064;51.142;4.780;2024-02-26T03:57:06;7.50;99.90
15930;DHT22;8064;51.142;4.780;2024-02-26T03:59:31;7.50;99.90
15930;DHT22;8064;51.142;4.780;2024-02-26T04:01:57;7.50;99.90
15930;DHT22;8064;51.142;4.780;2024-02-26T04:04:23;7.50;99.90
15930;DHT22;8064;51.142;4.780;2024-02-26T04:06:49;7.50;99.90
15930;DHT22;8064;51.142;4.780;2024-02-26T04:09:14;7.50;99.90
15930;DHT22;8064;51.142;4.780;2024-02-26T04:11:40;7.50;99.90
15930;DHT22;8064;51.142;4.780;2024-02-26T04:14:06;7.50;99.90
15930;DHT22;8064;51.142;4.780;2024-02-26T04:16:34;7.50;99.90
15930;DHT22;8064;51.142;4.780;2024-02-26T04:19:01;7.50;99.90
15930;DHT22;8064;51.142;4.780;2024-02-26T04:21:27;7.50;99.90
15930;DHT22;8064;51.142;4.780;2024-02-26T04:23:52;7.50;99.90
15930;DHT22;8064;51.142;4.780;2024-02-26T04:26:21;7.50;99.90
15930;DHT22;8064;51.142;4.780;2024-02-26T04:28:47;7.50;99.90
15930;DHT22;8064;51.142;4.780;2024-02-26T04:31:13;7.40;99.90
15930;DHT22;8064;51.142;4.780;2024-02-26T04:33:38;7.40;99.90
15930;DHT22;8064;51.142;4.780;2024-02-26T04:36:04;7.40;99.90
15930;DHT22;8064;51.142;4.780;2024-02-26T04:38:30;7.40;99.90
15930;DHT22;8064;51.142;4.780;2024-02-26T04:40:56;7.40;99.90
15930;DHT22;8064;51.142;4.780;2024-02-26T04:43:21;7.40;99.90
15930;DHT22;8064;51.142;4.780;2024-02-26T04:45:47;7.40;99.90
15930;DHT22;8064;51.142;4.780;2024-02-26T04:48:13;7.40;99.90
15930;DHT22;8064;51.142;4.780;2024-02-26T04:50:39;7.40;99.90
15930;DHT22;8064;51.142;4.780;2024-02-26T04:53:05;7.40;99.90
15930;DHT22;8064;51.142;4.780;2024-02-26T04:55:30;7.40;99.90
15930;DHT22;8064;51.142;4.780;2024-02-26T04:57:56;7.40;99.90
15930;DHT22;8064;51.142;4.780;2024-02-26T05:00:22;7.40;99.90
15930;DHT22;8064;51.142;4.780;2024-02-26T05:02:48;7.30;99.90
15930;DHT22;8064;51.142;4.780;2024-02-26T05:05:14;7.30;99.90
15930;DHT22;8064;51.142;4.780;2024-02-26T05:07:40;7.30;99.90
15930;DHT22;8064;51.142;4.780;2024-02-26T05:10:07;7.30;99.90
15930;DHT22;8064;51.142;4.780;2024-02-26T05:12:33;7.30;99.90
15930;DHT22;8064;51.142;4.780;2024-02-26T05:15:01;7.30;99.90
15930;DHT22;8064;51.142;4.780;2024-02-26T05:17:27;7.30;99.90
15930;DHT22;8064;51.142;4.780;2024-02-26T05:19:53;7.30;99.90
15930;DHT22;8064;51.142;4.780;2024-02-26T05:22:19;7.30;99.90
15930;DHT22;8064;51.142;4.780;2024-02-26T05:24:45;7.30;99.90
15930;DHT22;8064;51.142;4.780;2024-02-26T05:27:11;7.30;99.90
15930;DHT22;8064;51.142;4.780;2024-02-26T05:29:37;7.30;99.90
15930;DHT22;8064;51.142;4.780;2024-02-26T05:32:04;7.30;99.90
15930;DHT22;8064;51.142;4.780;2024-02-26T05:34:30;7.30;99.90
15930;DHT22;8064;51.142;4.780;2024-02-26T05:36:56;7.30;99.90
15930;DHT22;8064;51.142;4.780;2024-02-26T05:39:22;7.30;99.90
15930;DHT22;8064;51.142;4.780;2024-02-26T05:41:48;7.30;99.90
15930;DHT22;8064;51.142;4.780;2024-02-26T05:44:15;7.30;99.90
15930;DHT22;8064;51.142;4.780;2024-02-26T05:46:41;7.30;99.90
15930;DHT22;8064;51.142;4.780;2024-02-26T05:49:07;7.30;99.90
15930;DHT22;8064;51.142;4.780;2024-02-26T05:51:33;7.30;99.90
15930;DHT22;8064;51.142;4.780;2024-02-26T05:53:59;7.30;99.90
15930;DHT22;8064;51.142;4.780;2024-02-26T05:56:24;7.20;99.90
15930;DHT22;8064;51.142;4.780;2024-02-26T05:58:50;7.20;99.90
15930;DHT22;8064;51.142;4.780;2024-02-26T06:01:17;7.20;99.90
15930;DHT22;8064;51.142;4.780;2024-02-26T06:03:43;7.20;99.90
15930;DHT22;8064;51.142;4.780;2024-02-26T06:06:10;7.20;99.90
15930;DHT22;8064;51.142;4.780;2024-02-26T06:08:36;7.20;99.90
15930;DHT22;8064;51.142;4.780;2024-02-26T06:11:08;7.20;99.90
15930;DHT22;8064;51.142;4.780;2024-02-26T06:13:34;7.20;99.90
15930;DHT22;8064;51.142;4.780;2024-02-26T06:16:00;7.20;99.90
15930;DHT22;8064;51.142;4.780;2024-02-26T06:18:26;7.20;99.90
15930;DHT22;8064;51.142;4.780;2024-02-26T06:20:52;7.20;99.90
15930;DHT22;8064;51.142;4.780;2024-02-26T06:23:18;7.20;99.90
15930;DHT22;8064;51.142;4.780;2024-02-26T06:25:44;7.20;99.90
15930;DHT22;8064;51.142;4.780;2024-02-26T06:28:09;7.20;99.90
15930;DHT22;8064;51.142;4.780;2024-02-26T06:30:35;7.20;99.90
15930;DHT22;8064;51.142;4.780;2024-02-26T06:33:01;7.20;99.90
15930;DHT22;8064;51.142;4.780;2024-02-26T06:35:27;7.20;99.90
15930;DHT22;8064;51.142;4.780;2024-02-26T06:37:53;7.20;99.90
15930;DHT22;8064;51.142;4.780;2024-02-26T06:40:20;7.20;99.90
15930;DHT22;8064;51.142;4.780;2024-02-26T06:42:46;7.30;99.90
15930;DHT22;8064;51.142;4.780;2024-02-26T06:45:12;7.20;99.90
15930;DHT22;8064;51.142;4.780;2024-02-26T06:47:38;7.30;99.90
15930;DHT22;8064;51.142;4.780;2024-02-26T06:50:04;7.30;99.90
15930;DHT22;8064;51.142;4.780;2024-02-26T06:52:30;7.30;99.90
15930;DHT22;8064;51.142;4.780;2024-02-26T06:54:56;7.30;99.90
15930;DHT22;8064;51.142;4.780;2024-02-26T06:57:22;7.30;99.90
15930;DHT22;8064;51.142;4.780;2024-02-26T06:59:47;7.30;99.90
15930;DHT22;8064;51.142;4.780;2024-02-26T07:02:14;7.30;99.90
15930;DHT22;8064;51.142;4.780;2024-02-26T07:04:40;7.30;99.90
15930;DHT22;8064;51.142;4.780;2024-02-26T07:07:06;7.30;99.90
15930;DHT22;8064;51.142;4.780;2024-02-26T07:09:32;7.30;99.90
15930;DHT22;8064;51.142;4.780;2024-02-26T07:11:58;7.30;99.90
15930;DHT22;8064;51.142;4.780;2024-02-26T07:14:24;7.40;99.90
15930;DHT22;8064;51.142;4.780;2024-02-26T07:16:50;7.40;99.90
15930;DHT22;8064;51.142;4.780;2024-02-26T07:19:16;7.40;99.90
15930;DHT22;8064;51.142;4.780;2024-02-26T07:21:42;7.40;99.90
15930;DHT22;8064;51.142;4.780;2024-02-26T07:24:08;7.40;99.90
15930;DHT22;8064;51.142;4.780;2024-02-26T07:26:34;7.40;99.90
15930;DHT22;8064;51.142;4.780;2024-02-26T07:29:00;7.40;99.90
15930;DHT22;8064;51.142;4.780;2024-02-26T07:31:27;7.40;99.90
15930;DHT22;8064;51.142;4.780;2024-02-26T07:33:52;7.40;99.90
15930;DHT22;8064;51.142;4.780;2024-02-26T07:36:18;7.40;99.90
15930;DHT22;8064;51.142;4.780;2024-02-26T07:38:44;7.40;99.90
15930;DHT22;8064;51.142;4.780;2024-02-26T07:41:10;7.40;99.90
15930;DHT22;8064;51.142;4.780;2024-02-26T07:43:36;7.40;99.90
15930;DHT22;8064;51.142;4.780;2024-02-26T07:46:02;7.40;99.90
15930;DHT22;8064;51.142;4.780;2024-02-26T07:48:28;7.50;99.90
15930;DHT22;8064;51.142;4.780;2024-02-26T07:50:55;7.50;99.90
15930;DHT22;8064;51.142;4.780;2024-02-26T07:53:21;7.40;99.90
15930;DHT22;8064;51.142;4.780;2024-02-26T07:55:47;7.40;99.90
15930;DHT22;8064;51.142;4.780;2024-02-26T07:58:13;7.50;99.90
15930;DHT22;8064;51.142;4.780;2024-02-26T08:00:39;7.40;99.90
15930;DHT22;8064;51.142;4.780;2024-02-26T08:03:05;7.50;99.90
15930;DHT22;8064;51.142;4.780;2024-02-26T08:05:31;7.50;99.90
15930;DHT22;8064;51.142;4.780;2024-02-26T08:07:56;7.50;99.90
15930;DHT22;8064;51.142;4.780;2024-02-26T08:10:22;7.50;99.90
15930;DHT22;8064;51.142;4.780;2024-02-26T08:12:48;7.50;99.90
15930;DHT22;8064;51.142;4.780;2024-02-26T08:15:14;7.50;99.90
15930;DHT22;8064;51.142;4.780;2024-02-26T08:17:40;7.50;99.90
15930;DHT22;8064;51.142;4.780;2024-02-26T08:20:07;7.50;99.90
15930;DHT22;8064;51.142;4.780;2024-02-26T08:22:34;7.50;99.90
15930;DHT22;8064;51.142;4.780;2024-02-26T08:25:06;7.50;99.90
15930;DHT22;8064;51.142;4.780;2024-02-26T08:27:34;7.50;99.90
15930;DHT22;8064;51.142;4.780;2024-02-26T08:30:00;7.50;99.90
15930;DHT22;8064;51.142;4.780;2024-02-26T08:32:26;7.50;99.90
15930;DHT22;8064;51.142;4.780;2024-02-26T08:34:51;7.40;99.90
15930;DHT22;8064;51.142;4.780;2024-02-26T08:37:17;7.40;99.90
15930;DHT22;8064;51.142;4.780;2024-02-26T08:39:43;7.40;99.90
15930;DHT22;8064;51.142;4.780;2024-02-26T08:42:08;7.40;99.90
15930;DHT22;8064;51.142;4.780;2024-02-26T08:44:34;7.40;99.90
15930;DHT22;8064;51.142;4.780;2024-02-26T08:47:03;7.40;99.90
15930;DHT22;8064;51.142;4.780;2024-02-26T08:49:32;7.40;99.90
15930;DHT22;8064;51.142;4.780;2024-02-26T08:51:57;7.50;99.90
15930;DHT22;8064;51.142;4.780;2024-02-26T08:54:23;7.50;99.90
15930;DHT22;8064;51.142;4.780;2024-02-26T08:56:49;7.50;99.90
15930;DHT22;8064;51.142;4.780;2024-02-26T08:59:16;7.50;99.90
15930;DHT22;8064;51.142;4.780;2024-02-26T09:01:47;7.50;99.90
15930;DHT22;8064;51.142;4.780;2024-02-26T09:04:13;7.50;99.90
15930;DHT22;8064;51.142;4.780;2024-02-26T09:06:39;7.50;99.90
15930;DHT22;8064;51.142;4.780;2024-02-26T09:09:05;7.50;99.90
15930;DHT22;8064;51.142;4.780;2024-02-26T09:11:31;7.50;99.90
15930;DHT22;8064;51.142;4.780;2024-02-26T09:13:57;7.50;99.90
15930;DHT22;8064;51.142;4.780;2024-02-26T09:16:22;7.50;99.90
15930;DHT22;8064;51.142;4.780;2024-02-26T09:18:48;7.50;99.90
15930;DHT22;8064;51.142;4.780;2024-02-26T09:21:14;7.50;99.90
15930;DHT22;8064;51.142;4.780;2024-02-26T09:23:40;7.50;99.90
15930;DHT22;8064;51.142;4.780;2024-02-26T09:26:06;7.60;99.90
15930;DHT22;8064;51.142;4.780;2024-02-26T09:28:32;7.60;99.90
15930;DHT22;8064;51.142;4.780;2024-02-26T09:31:04;7.60;99.90
15930;DHT22;8064;51.142;4.780;2024-02-26T09:33:29;7.60;99.90
15930;DHT22;8064;51.142;4.780;2024-02-26T09:35:55;7.60;99.90
15930;DHT22;8064;51.142;4.780;2024-02-26T09:38:21;7.60;99.90
15930;DHT22;8064;51.142;4.780;2024-02-26T09:40:47;7.60;99.90
15930;DHT22;8064;51.142;4.780;2024-02-26T09:43:14;7.60;99.90
15930;DHT22;8064;51.142;4.780;2024-02-26T09:45:42;7.60;99.90
15930;DHT22;8064;51.142;4.780;2024-02-26T09:48:10;7.60;99.90
15930;DHT22;8064;51.142;4.780;2024-02-26T09:50:40;7.60;99.90
15930;DHT22;8064;51.142;4.780;2024-02-26T09:53:08;7.60;99.90
15930;DHT22;8064;51.142;4.780;2024-02-26T09:55:36;7.50;99.90
15930;DHT22;8064;51.142;4.780;2024-02-26T09:58:02;7.50;99.90
15930;DHT22;8064;51.142;4.780;2024-02-26T10:00:31;7.50;99.90
15930;DHT22;8064;51.142;4.780;2024-02-26T10:03:03;7.50;99.90
15930;DHT22;8064;51.142;4.780;2024-02-26T10:05:30;7.50;99.90
15930;DHT22;8064;51.142;4.780;2024-02-26T10:07:57;7.50;99.90
15930;DHT22;8064;51.142;4.780;2024-02-26T10:10:25;7.50;99.90
15930;DHT22;8064;51.142;4.780;2024-02-26T10:12:53;7.50;99.90
15930;DHT22;8064;51.142;4.780;2024-02-26T10:15:18;7.50;99.90
15930;DHT22;8064;51.142;4.780;2024-02-26T10:17:44;7.50;99.90
15930;DHT22;8064;51.142;4.780;2024-02-26T10:20:12;7.50;99.90
15930;DHT22;8064;51.142;4.780;2024-02-26T10:22:38;7.50;99.90
15930;DHT22;8064;51.142;4.780;2024-02-26T10:25:04;7.50;99.90
15930;DHT22;8064;51.142;4.780;2024-02-26T10:27:30;7.50;99.90
15930;DHT22;8064;51.142;4.780;2024-02-26T10:29:57;7.50;99.90
15930;DHT22;8064;51.142;4.780;2024-02-26T10:32:23;7.50;99.90
15930;DHT22;8064;51.142;4.780;2024-02-26T10:34:55;7.50;99.90
15930;DHT22;8064;51.142;4.780;2024-02-26T10:37:22;7.50;99.90
15930;DHT22;8064;51.142;4.780;2024-02-26T10:39:48;7.50;99.90
15930;DHT22;8064;51.142;4.780;2024-02-26T10:42:14;7.50;99.90
15930;DHT22;8064;51.142;4.780;2024-02-26T10:44:41;7.50;99.90
15930;DHT22;8064;51.142;4.780;2024-02-26T10:47:09;7.50;99.90
15930;DHT22;8064;51.142;4.780;2024-02-26T10:49:35;7.50;99.90
15930;DHT22;8064;51.142;4.780;2024-02-26T10:52:01;7.50;99.90
15930;DHT22;8064;51.142;4.780;2024-02-26T10:54:29;7.50;99.90
15930;DHT22;8064;51.142;4.780;2024-02-26T10:56:59;7.50;99.90
15930;DHT22;8064;51.142;4.780;2024-02-26T10:59:25;7.50;99.90
15930;DHT22;8064;51.142;4.780;2024-02-26T11:01:52;7.50;99.90
15930;DHT22;8064;51.142;4.780;2024-02-26T11:04:18;7.50;99.90
15930;DHT22;8064;51.142;4.780;2024-02-26T11:06:45;7.40;99.90
15930;DHT22;8064;51.142;4.780;2024-02-26T11:09:12;7.50;99.90
15930;DHT22;8064;51.142;4.780;2024-02-26T11:11:40;7.50;99.90
15930;DHT22;8064;51.142;4.780;2024-02-26T11:14:08;7.50;99.90
15930;DHT22;8064;51.142;4.780;2024-02-26T11:16:35;7.50;99.90
15930;DHT22;8064;51.142;4.780;2024-02-26T11:19:02;7.50;99.90
15930;DHT22;8064;51.142;4.780;2024-02-26T11:21:28;7.50;99.90
15930;DHT22;8064;51.142;4.780;2024-02-26T11:24:06;7.50;99.90
15930;DHT22;8064;51.142;4.780;2024-02-26T11:26:34;7.50;99.90
15930;DHT22;8064;51.142;4.780;2024-02-26T11:29:01;7.50;99.90
15930;DHT22;8064;51.142;4.780;2024-02-26T11:31:28;7.50;99.90
15930;DHT22;8064;51.142;4.780;2024-02-26T11:33:56;7.50;99.90
15930;DHT22;8064;51.142;4.780;2024-02-26T11:36:23;7.50;99.90
15930;DHT22;8064;51.142;4.780;2024-02-26T11:38:50;7.50;99.90
15930;DHT22;8064;51.142;4.780;2024-02-26T11:41:17;7.50;99.90
15930;DHT22;8064;51.142;4.780;2024-02-26T11:43:52;7.50;99.90
15930;DHT22;8064;51.142;4.780;2024-02-26T11:46:26;7.50;99.90
15930;DHT22;8064;51.142;4.780;2024-02-26T11:48:55;7.60;99.90
15930;DHT22;8064;51.142;4.780;2024-02-26T11:51:26;7.50;99.90
15930;DHT22;8064;51.142;4.780;2024-02-26T11:53:53;7.50;99.90
15930;DHT22;8064;51.142;4.780;2024-02-26T11:58:46;7.50;99.90
15930;DHT22;8064;51.142;4.780;2024-02-26T12:01:38;7.50;99.90
15930;DHT22;8064;51.142;4.780;2024-02-26T12:04:05;7.50;99.90
15930;DHT22;8064;51.142;4.780;2024-02-26T12:06:54;7.40;99.90
15930;DHT22;8064;51.142;4.780;2024-02-26T12:09:45;7.40;99.90
15930;DHT22;8064;51.142;4.780;2024-02-26T12:12:17;7.40;99.90
15930;DHT22;8064;51.142;4.780;2024-02-26T12:14:53;7.40;99.90
15930;DHT22;8064;51.142;4.780;2024-02-26T12:17:23;7.40;99.90
15930;DHT22;8064;51.142;4.780;2024-02-26T12:19:49;7.40;99.90
15930;DHT22;8064;51.142;4.780;2024-02-26T12:22:16;7.40;99.90
15930;DHT22;8064;51.142;4.780;2024-02-26T12:24:43;7.40;99.90
15930;DHT22;8064;51.142;4.780;2024-02-26T12:27:09;7.40;99.90
15930;DHT22;8064;51.142;4.780;2024-02-26T12:29:35;7.40;99.90
15930;DHT22;8064;51.142;4.780;2024-02-26T12:32:01;7.40;99.90
15930;DHT22;8064;51.142;4.780;2024-02-26T12:34:28;7.30;99.90
15930;DHT22;8064;51.142;4.780;2024-02-26T12:36:54;7.30;99.90
15930;DHT22;8064;51.142;4.780;2024-02-26T12:39:20;7.30;99.90
15930;DHT22;8064;51.142;4.780;2024-02-26T12:41:47;7.30;99.90
15930;DHT22;8064;51.142;4.780;2024-02-26T12:44:18;7.30;99.90
15930;DHT22;8064;51.142;4.780;2024-02-26T12:46:44;7.30;99.90
15930;DHT22;8064;51.142;4.780;2024-02-26T12:49:15;7.30;99.90
15930;DHT22;8064;51.142;4.780;2024-02-26T12:51:44;7.30;99.90
15930;DHT22;8064;51.142;4.780;2024-02-26T12:54:10;7.30;99.90
15930;DHT22;8064;51.142;4.780;2024-02-26T12:56:36;7.30;99.90
15930;DHT22;8064;51.142;4.780;2024-02-26T12:59:02;7.30;99.90
15930;DHT22;8064;51.142;4.780;2024-02-26T13:01:29;7.30;99.90
15930;DHT22;8064;51.142;4.780;2024-02-26T13:03:56;7.30;99.90
15930;DHT22;8064;51.142;4.780;2024-02-26T13:06:22;7.30;99.90
15930;DHT22;8064;51.142;4.780;2024-02-26T13:08:48;7.30;99.90
15930;DHT22;8064;51.142;4.780;2024-02-26T13:11:14;7.30;99.90
15930;DHT22;8064;51.142;4.780;2024-02-26T13:13:40;7.30;99.90
15930;DHT22;8064;51.142;4.780;2024-02-26T13:16:09;7.30;99.90
15930;DHT22;8064;51.142;4.780;2024-02-26T13:18:36;7.40;99.90
15930;DHT22;8064;51.142;4.780;2024-02-26T13:21:09;7.40;99.90
15930;DHT22;8064;51.142;4.780;2024-02-26T13:23:36;7.40;99.90
15930;DHT22;8064;51.142;4.780;2024-02-26T13:26:02;7.40;99.90
15930;DHT22;8064;51.142;4.780;2024-02-26T13:28:28;7.30;99.90
15930;DHT22;8064;51.142;4.780;2024-02-26T13:30:55;7.30;99.90
15930;DHT22;8064;51.142;4.780;2024-02-26T13:33:23;7.30;99.90
15930;DHT22;8064;51.142;4.780;2024-02-26T13:35:49;7.30;99.90
15930;DHT22;8064;51.142;4.780;2024-02-26T13:38:15;7.30;99.90
15930;DHT22;8064;51.142;4.780;2024-02-26T13:40:41;7.30;99.90
15930;DHT22;8064;51.142;4.780;2024-02-26T13:43:07;7.30;99.90
15930;DHT22;8064;51.142;4.780;2024-02-26T13:45:34;7.30;99.90
15930;DHT22;8064;51.142;4.780;2024-02-26T13:48:03;7.30;99.90
15930;DHT22;8064;51.142;4.780;2024-02-26T13:50:29;7.40;99.90
15930;DHT22;8064;51.142;4.780;2024-02-26T13:52:55;7.40;99.90
15930;DHT22;8064;51.142;4.780;2024-02-26T13:55:22;7.40;99.90
15930;DHT22;8064;51.142;4.780;2024-02-26T13:57:52;7.40;99.90
15930;DHT22;8064;51.142;4.780;2024-02-26T14:00:19;7.40;99.90
15930;DHT22;8064;51.142;4.780;2024-02-26T14:02:46;7.40;99.90
15930;DHT22;8064;51.142;4.780;2024-02-26T14:05:11;7.50;99.90
15930;DHT22;8064;51.142;4.780;2024-02-26T14:07:37;7.40;99.90
15930;DHT22;8064;51.142;4.780;2024-02-26T14:10:03;7.40;99.90
15930;DHT22;8064;51.142;4.780;2024-02-26T14:12:29;7.40;99.90
15930;DHT22;8064;51.142;4.780;2024-02-26T14:14:55;7.50;99.90
15930;DHT22;8064;51.142;4.780;2024-02-26T14:17:22;7.50;99.90
15930;DHT22;8064;51.142;4.780;2024-02-26T14:19:48;7.50;99.90
15930;DHT22;8064;51.142;4.780;2024-02-26T14:22:14;7.50;99.90
15930;DHT22;8064;51.142;4.780;2024-02-26T14:24:41;7.50;99.90
15930;DHT22;8064;51.142;4.780;2024-02-26T14:27:10;7.50;99.90
15930;DHT22;8064;51.142;4.780;2024-02-26T14:29:36;7.50;99.90
15930;DHT22;8064;51.142;4.780;2024-02-26T14:32:03;7.50;99.90
15930;DHT22;8064;51.142;4.780;2024-02-26T14:34:31;7.50;99.90
15930;DHT22;8064;51.142;4.780;2024-02-26T14:36:56;7.50;99.90
15930;DHT22;8064;51.142;4.780;2024-02-26T14:39:22;7.50;99.90
15930;DHT22;8064;51.142;4.780;2024-02-26T14:41:49;7.50;99.90
15930;DHT22;8064;51.142;4.780;2024-02-26T14:44:15;7.50;99.90
15930;DHT22;8064;51.142;4.780;2024-02-26T14:46:41;7.50;99.90
15930;DHT22;8064;51.142;4.780;2024-02-26T14:49:08;7.50;99.90
15930;DHT22;8064;51.142;4.780;2024-02-26T14:51:38;7.50;99.90
15930;DHT22;8064;51.142;4.780;2024-02-26T14:54:05;7.50;99.90
15930;DHT22;8064;51.142;4.780;2024-02-26T14:56:32;7.50;99.90
15930;DHT22;8064;51.142;4.780;2024-02-26T14:58:58;7.50;99.90
15930;DHT22;8064;51.142;4.780;2024-02-26T15:01:24;7.50;99.90
15930;DHT22;8064;51.142;4.780;2024-02-26T15:03:50;7.50;99.90
15930;DHT22;8064;51.142;4.780;2024-02-26T15:06:15;7.50;99.90
15930;DHT22;8064;51.142;4.780;2024-02-26T15:08:41;7.50;99.90
15930;DHT22;8064;51.142;4.780;2024-02-26T15:11:07;7.50;99.90
15930;DHT22;8064;51.142;4.780;2024-02-26T15:13:34;7.40;99.90
15930;DHT22;8064;51.142;4.780;2024-02-26T15:16:01;7.50;99.90
15930;DHT22;8064;51.142;4.780;2024-02-26T15:18:27;7.40;99.90
15930;DHT22;8064;51.142;4.780;2024-02-26T15:20:52;7.50;99.90
15930;DHT22;8064;51.142;4.780;2024-02-26T15:23:18;7.40;99.90
15930;DHT22;8064;51.142;4.780;2024-02-26T15:25:45;7.40;99.90
15930;DHT22;8064;51.142;4.780;2024-02-26T15:28:11;7.40;99.90
15930;DHT22;8064;51.142;4.780;2024-02-26T15:30:39;7.40;99.90
15930;DHT22;8064;51.142;4.780;2024-02-26T15:33:05;7.50;99.90
15930;DHT22;8064;51.142;4.780;2024-02-26T15:35:31;7.40;99.90
15930;DHT22;8064;51.142;4.780;2024-02-26T15:37:56;7.50;99.90
15930;DHT22;8064;51.142;4.780;2024-02-26T15:40:24;7.50;99.90
15930;DHT22;8064;51.142;4.780;2024-02-26T15:42:49;7.40;99.90
15930;DHT22;8064;51.142;4.780;2024-02-26T15:45:15;7.40;99.90
15930;DHT22;8064;51.142;4.780;2024-02-26T15:47:42;7.40;99.90
15930;DHT22;8064;51.142;4.780;2024-02-26T15:50:08;7.40;99.90
15930;DHT22;8064;51.142;4.780;2024-02-26T15:52:36;7.40;99.90
15930;DHT22;8064;51.142;4.780;2024-02-26T15:55:04;7.40;99.90
15930;DHT22;8064;51.142;4.780;2024-02-26T15:57:30;7.40;99.90
15930;DHT22;8064;51.142;4.780;2024-02-26T15:59:56;7.40;99.90